createdAt,value
2018-09-12T00:00:20.137Z,7.60
2018-09-12T00:02:47.044Z,8.20
2018-09-12T00:05:13.964Z,6.77
2018-09-12T00:07:40.842Z,7.03
2018-09-12T00:10:07.784Z,7.23
2018-09-12T00:12:34.692Z,6.93
2018-09-12T00:15:01.606Z,6.73
2018-09-12T00:17:28.516Z,6.17
2018-09-12T00:19:55.412Z,7.10
2018-09-12T00:22:22.317Z,7.47
2018-09-12T00:24:49.221Z,7.37
2018-09-12T00:27:16.149Z,7.10
2018-09-12T00:29:43.057Z,8.63
2018-09-12T00:32:09.970Z,10.13
2018-09-12T00:34:36.871Z,7.37
2018-09-12T00:37:03.797Z,7.80
2018-09-12T00:39:30.704Z,3.77
2018-09-12T00:41:57.619Z,2.90
2018-09-12T00:44:24.512Z,3.13
2018-09-12T00:46:51.446Z,2.70
2018-09-12T00:49:18.356Z,2.93
2018-09-12T00:51:45.306Z,3.60
2018-09-12T00:54:12.201Z,2.73
2018-09-12T00:56:39.116Z,3.40
2018-09-12T00:59:06.029Z,2.70
2018-09-12T01:01:32.970Z,3.30
2018-09-12T01:03:59.880Z,2.70
2018-09-12T01:06:26.805Z,2.90
2018-09-12T01:08:53.729Z,2.67
2018-09-12T01:11:22.495Z,3.07
2018-09-12T01:13:49.905Z,2.87
2018-09-12T01:16:16.825Z,3.30
2018-09-12T01:18:43.736Z,3.03
2018-09-12T01:21:10.653Z,3.10
2018-09-12T01:23:37.545Z,2.90
2018-09-12T01:26:04.496Z,2.90
2018-09-12T01:28:31.421Z,2.67
2018-09-12T01:30:58.342Z,3.10
2018-09-12T01:33:25.257Z,2.73
2018-09-12T01:35:52.157Z,3.17
2018-09-12T01:38:19.062Z,3.13
2018-09-12T01:40:45.988Z,3.10
2018-09-12T01:43:12.904Z,3.60
2018-09-12T01:45:39.806Z,3.27
2018-09-12T01:48:06.704Z,2.47
2018-09-12T01:50:33.597Z,3.03
2018-09-12T01:53:00.492Z,3.30
2018-09-12T01:55:27.417Z,3.60
2018-09-12T01:57:54.320Z,2.90
2018-09-12T02:00:25.829Z,3.20
2018-09-12T02:02:52.745Z,3.30
2018-09-12T02:05:19.636Z,3.37
2018-09-12T02:07:46.581Z,2.50
2018-09-12T02:10:13.505Z,3.37
2018-09-12T02:12:40.428Z,3.43
2018-09-12T02:15:07.474Z,3.17
2018-09-12T02:17:34.377Z,3.17
2018-09-12T02:20:01.422Z,2.97
2018-09-12T02:22:28.337Z,3.57
2018-09-12T02:24:55.245Z,3.23
2018-09-12T02:27:22.157Z,4.20
2018-09-12T02:29:49.205Z,3.30
2018-09-12T02:32:16.108Z,3.73
2018-09-12T02:34:43.021Z,4.53
2018-09-12T02:37:09.940Z,4.10
2018-09-12T02:39:36.911Z,5.20
2018-09-12T02:42:03.851Z,4.60
2018-09-12T02:44:30.756Z,4.60
2018-09-12T02:46:57.673Z,4.30
2018-09-12T02:49:24.567Z,4.77
2018-09-12T02:51:51.879Z,4.60
2018-09-12T02:54:18.818Z,4.87
2018-09-12T02:56:45.716Z,4.30
2018-09-12T02:59:12.653Z,4.60
2018-09-12T03:01:39.585Z,4.30
2018-09-12T03:04:06.497Z,5.47
2018-09-12T03:06:33.401Z,4.87
2018-09-12T03:09:00.320Z,5.13
2018-09-12T03:11:27.230Z,5.50
2018-09-12T03:13:54.140Z,5.00
2018-09-12T03:16:21.035Z,5.67
2018-09-12T03:18:48.239Z,5.33
2018-09-12T03:21:15.143Z,6.40
2018-09-12T03:23:42.825Z,6.53
2018-09-12T03:26:09.723Z,5.87
2018-09-12T03:28:36.658Z,7.50
2018-09-12T03:31:03.560Z,6.20
2018-09-12T03:33:30.545Z,5.40
2018-09-12T03:35:57.460Z,4.97
2018-09-12T03:38:24.372Z,5.90
2018-09-12T03:40:51.261Z,5.90
2018-09-12T03:43:18.179Z,6.17
2018-09-12T03:45:45.049Z,6.20
2018-09-12T03:48:12.036Z,6.60
2018-09-12T03:50:38.897Z,6.10
2018-09-12T03:53:05.809Z,6.10
2018-09-12T03:55:32.693Z,7.07
2018-09-12T03:57:59.576Z,6.73
2018-09-12T04:00:26.477Z,6.50
2018-09-12T04:02:53.421Z,7.33
2018-09-12T04:05:20.304Z,5.83
2018-09-12T04:07:47.193Z,6.67
2018-09-12T04:10:14.100Z,7.10
2018-09-12T04:12:40.997Z,6.87
2018-09-12T04:15:07.896Z,6.30
2018-09-12T04:17:36.097Z,7.00
2018-09-12T04:20:03.252Z,7.43
2018-09-12T04:22:30.387Z,6.20
2018-09-12T04:24:57.273Z,7.67
2018-09-12T04:27:24.215Z,6.27
2018-09-12T04:29:51.154Z,6.60
2018-09-12T04:32:18.070Z,8.77
2018-09-12T04:34:44.961Z,7.10
2018-09-12T04:37:11.864Z,7.50
2018-09-12T04:39:38.801Z,7.30
2018-09-12T04:42:05.703Z,6.60
2018-09-12T04:44:32.608Z,7.10
2018-09-12T04:46:59.523Z,6.97
2018-09-12T04:49:26.434Z,7.07
2018-09-12T04:51:53.320Z,7.23
2018-09-12T04:54:20.221Z,6.93
2018-09-12T04:56:47.124Z,6.83
2018-09-12T04:59:14.183Z,7.23
2018-09-12T05:01:41.024Z,6.50
2018-09-12T05:04:07.929Z,6.23
2018-09-12T05:06:34.820Z,6.70
2018-09-12T05:09:01.751Z,6.73
2018-09-12T05:11:28.654Z,6.43
2018-09-12T05:13:55.542Z,7.07
2018-09-12T05:16:22.468Z,7.07
2018-09-12T05:18:49.359Z,7.67
2018-09-12T05:21:16.239Z,7.60
2018-09-12T05:23:43.146Z,7.37
2018-09-12T05:26:10.097Z,6.27
2018-09-12T05:28:37.091Z,6.77
2018-09-12T05:31:03.968Z,5.93
2018-09-12T05:33:30.873Z,6.40
2018-09-12T05:35:57.784Z,6.50
2018-09-12T05:38:24.684Z,7.00
2018-09-12T05:40:51.577Z,7.33
2018-09-12T05:43:18.456Z,7.20
2018-09-12T05:45:45.351Z,7.87
2018-09-12T05:48:12.238Z,9.63
2018-09-12T05:50:39.161Z,9.10
2018-09-12T05:53:06.052Z,9.43
2018-09-12T05:55:33.053Z,8.60
2018-09-12T05:57:59.815Z,7.90
2018-09-12T06:00:26.713Z,7.53
2018-09-12T06:02:53.620Z,7.77
2018-09-12T06:05:20.608Z,7.93
2018-09-12T06:07:47.504Z,7.50
2018-09-12T06:10:14.404Z,6.70
2018-09-12T06:12:41.296Z,7.20
2018-09-12T06:15:08.197Z,6.93
2018-09-12T06:17:35.096Z,7.03
2018-09-12T06:20:02.315Z,7.83
2018-09-12T06:22:29.207Z,7.00
2018-09-12T06:24:56.105Z,7.20
2018-09-12T06:27:23.006Z,6.67
2018-09-12T06:29:49.896Z,6.50
2018-09-12T06:32:16.777Z,6.20
2018-09-12T06:34:43.677Z,6.40
2018-09-12T06:37:10.549Z,7.10
2018-09-12T06:39:37.493Z,6.00
2018-09-12T06:42:04.380Z,6.60
2018-09-12T06:44:31.314Z,6.20
2018-09-12T06:46:58.151Z,6.50
2018-09-12T06:49:25.049Z,6.90
2018-09-12T06:51:51.944Z,5.73
2018-09-12T06:54:18.812Z,5.90
2018-09-12T06:56:45.713Z,6.27
2018-09-12T06:59:12.595Z,6.23
2018-09-12T07:01:39.471Z,5.80
2018-09-12T07:04:06.352Z,5.80
2018-09-12T07:06:33.260Z,6.40
2018-09-12T07:09:00.140Z,5.70
2018-09-12T07:11:27.025Z,4.87
2018-09-12T07:13:54.020Z,6.20
2018-09-12T07:16:20.893Z,5.90
2018-09-12T07:18:47.763Z,5.57
2018-09-12T07:21:14.640Z,5.20
2018-09-12T07:23:41.685Z,5.13
2018-09-12T07:26:08.567Z,6.67
2018-09-12T07:28:35.473Z,5.30
2018-09-12T07:31:02.388Z,5.40
2018-09-12T07:33:29.265Z,5.37
2018-09-12T07:35:56.161Z,5.57
2018-09-12T07:38:23.048Z,4.90
2018-09-12T07:40:49.928Z,6.17
2018-09-12T07:43:16.831Z,4.33
2018-09-12T07:45:43.752Z,3.60
2018-09-12T07:48:10.661Z,3.27
2018-09-12T07:50:37.604Z,3.37
2018-09-12T07:53:04.532Z,3.83
2018-09-12T07:55:31.455Z,3.37
2018-09-12T07:57:58.420Z,4.00
2018-09-12T08:00:25.352Z,3.60
2018-09-12T08:02:52.241Z,2.97
2018-09-12T08:05:19.209Z,4.73
2018-09-12T08:07:46.113Z,4.27
2018-09-12T08:10:13.034Z,4.53
2018-09-12T08:12:39.929Z,5.50
2018-09-12T08:15:06.925Z,4.77
2018-09-12T08:17:33.900Z,5.13
2018-09-12T08:20:00.788Z,4.97
2018-09-12T08:22:27.704Z,5.47
2018-09-12T08:24:54.593Z,5.60
2018-09-12T08:27:21.485Z,4.83
2018-09-12T08:29:48.361Z,5.07
2018-09-12T08:32:15.229Z,3.97
2018-09-12T08:34:42.147Z,2.97
2018-09-12T08:37:09.039Z,3.00
2018-09-12T08:39:35.930Z,3.73
2018-09-12T08:42:02.832Z,3.47
2018-09-12T08:44:29.716Z,4.30
2018-09-12T08:46:56.621Z,3.77
2018-09-12T08:49:23.515Z,4.30
2018-09-12T08:51:50.536Z,4.50
2018-09-12T08:54:17.441Z,3.60
2018-09-12T08:56:44.383Z,5.03
2018-09-12T08:59:11.261Z,7.33
2018-09-12T09:01:38.187Z,5.00
2018-09-12T09:04:05.479Z,5.00
2018-09-12T09:06:32.316Z,5.00
2018-09-12T09:08:59.243Z,6.53
2018-09-12T09:11:26.136Z,4.47
2018-09-12T09:13:53.056Z,4.63
2018-09-12T09:16:19.996Z,5.40
2018-09-12T09:18:46.940Z,5.57
2018-09-12T09:21:13.830Z,7.13
2018-09-12T09:23:40.769Z,5.67
2018-09-12T09:26:07.664Z,5.47
2018-09-12T09:28:34.561Z,5.23
2018-09-12T09:31:01.477Z,4.97
2018-09-12T09:33:28.395Z,4.70
2018-09-12T09:35:55.278Z,4.97
2018-09-12T09:38:22.176Z,3.83
2018-09-12T09:40:49.064Z,4.90
2018-09-12T09:43:15.977Z,5.20
2018-09-12T09:45:42.876Z,5.13
2018-09-12T09:48:09.777Z,3.50
2018-09-12T09:50:36.668Z,3.73
2018-09-12T09:53:03.566Z,3.90
2018-09-12T09:55:30.441Z,3.67
2018-09-12T09:57:57.321Z,3.73
2018-09-12T10:00:30.081Z,3.80
2018-09-12T10:03:02.574Z,3.13
2018-09-12T10:05:35.303Z,3.33
2018-09-12T10:08:08.073Z,3.60
2018-09-12T10:10:34.951Z,4.00
2018-09-12T10:13:01.836Z,4.00
2018-09-12T10:15:28.721Z,3.50
2018-09-12T10:17:55.605Z,3.47
2018-09-12T10:20:22.474Z,4.10
2018-09-12T10:22:49.361Z,3.33
2018-09-12T10:25:16.249Z,3.40
2018-09-12T10:27:43.140Z,4.93
2018-09-12T10:30:10.031Z,3.83
2018-09-12T10:32:36.924Z,3.50
2018-09-12T10:35:03.808Z,3.63
2018-09-12T10:37:30.721Z,3.93
2018-09-12T10:39:57.629Z,3.20
2018-09-12T10:42:24.510Z,4.47
2018-09-12T10:44:51.393Z,3.43
2018-09-12T10:47:18.293Z,2.97
2018-09-12T10:49:45.733Z,4.10
2018-09-12T10:52:12.660Z,4.10
2018-09-12T10:54:39.533Z,3.00
2018-09-12T10:57:06.424Z,3.47
2018-09-12T10:59:33.317Z,3.00
2018-09-12T11:02:00.200Z,3.10
2018-09-12T11:04:27.133Z,3.13
2018-09-12T11:06:53.986Z,2.63
2018-09-12T11:09:20.887Z,2.27
2018-09-12T11:11:47.801Z,2.50
2018-09-12T11:14:14.688Z,2.00
2018-09-12T11:16:41.590Z,1.90
2018-09-12T11:19:08.484Z,1.90
2018-09-12T11:21:35.393Z,1.90
2018-09-12T11:24:02.402Z,1.87
2018-09-12T11:26:29.240Z,2.40
2018-09-12T11:28:56.183Z,1.70
2018-09-12T11:31:23.076Z,2.10
2018-09-12T11:33:50.007Z,1.73
2018-09-12T11:36:16.885Z,1.70
2018-09-12T11:38:43.804Z,1.80
2018-09-12T11:41:10.695Z,2.00
2018-09-12T11:43:37.673Z,1.63
2018-09-12T11:46:04.556Z,2.00
2018-09-12T11:48:31.513Z,1.83
2018-09-12T11:50:58.400Z,1.70
2018-09-12T11:53:25.344Z,1.50
2018-09-12T11:55:52.232Z,1.73
2018-09-12T11:58:19.133Z,1.63
2018-09-12T12:00:46.010Z,1.50
2018-09-12T12:03:12.916Z,1.80
2018-09-12T12:05:39.827Z,1.87
2018-09-12T12:08:06.720Z,2.17
2018-09-12T12:10:33.608Z,2.50
2018-09-12T12:13:00.504Z,2.03
2018-09-12T12:15:34.312Z,2.23
2018-09-12T12:18:01.214Z,2.00
2018-09-12T12:20:28.109Z,2.07
2018-09-12T12:22:55.039Z,2.90
2018-09-12T12:25:21.924Z,3.20
2018-09-12T12:27:48.820Z,2.70
2018-09-12T12:30:15.737Z,3.40
2018-09-12T12:32:42.625Z,3.10
2018-09-12T12:35:09.517Z,2.50
2018-09-12T12:37:36.397Z,2.80
2018-09-12T12:40:03.316Z,2.77
2018-09-12T12:42:30.204Z,2.90
2018-09-12T12:44:57.126Z,2.60
2018-09-12T12:47:24.018Z,2.80
2018-09-12T12:49:50.938Z,2.70
2018-09-12T12:52:17.853Z,2.27
2018-09-12T12:54:44.764Z,2.40
2018-09-12T12:57:11.633Z,2.30
2018-09-12T12:59:38.540Z,2.63
2018-09-12T13:02:05.428Z,2.10
2018-09-12T13:04:32.321Z,2.10
2018-09-12T13:06:59.249Z,2.13
2018-09-12T13:09:26.125Z,2.03
2018-09-12T13:11:53.001Z,3.00
2018-09-12T13:14:19.872Z,2.00
2018-09-12T13:16:46.750Z,2.43
2018-09-12T13:19:13.650Z,2.50
2018-09-12T13:21:40.666Z,1.87
2018-09-12T13:24:07.413Z,2.27
2018-09-12T13:26:34.292Z,1.87
2018-09-12T13:29:01.366Z,2.10
2018-09-12T13:31:28.384Z,2.13
2018-09-12T13:33:55.284Z,2.40
2018-09-12T13:36:22.165Z,1.80
2018-09-12T13:38:49.097Z,2.00
2018-09-12T13:41:15.984Z,2.10
2018-09-12T13:43:42.869Z,1.70
2018-09-12T13:46:09.761Z,2.00
2018-09-12T13:48:36.678Z,1.87
2018-09-12T13:51:03.578Z,1.80
2018-09-12T13:53:30.464Z,2.13
2018-09-12T13:55:57.347Z,1.93
2018-09-12T13:58:24.232Z,1.70
2018-09-12T14:00:51.133Z,1.97
2018-09-12T14:03:18.057Z,1.87
2018-09-12T14:05:44.938Z,2.10
2018-09-12T14:08:11.832Z,2.20
2018-09-12T14:10:38.742Z,2.07
2018-09-12T14:13:05.688Z,1.80
2018-09-12T14:15:32.584Z,2.00
2018-09-12T14:17:59.481Z,1.73
2018-09-12T14:20:26.372Z,1.80
2018-09-12T14:22:53.378Z,1.50
2018-09-12T14:25:20.176Z,1.80
2018-09-12T14:27:47.100Z,2.07
2018-09-12T14:30:13.985Z,1.70
2018-09-12T14:32:40.856Z,1.80
2018-09-12T14:35:07.772Z,1.90
2018-09-12T14:37:34.686Z,2.00
2018-09-12T14:40:01.584Z,1.77
2018-09-12T14:42:28.496Z,2.10
2018-09-12T14:44:55.413Z,1.90
2018-09-12T14:47:22.292Z,1.70
2018-09-12T14:49:49.196Z,1.77
2018-09-12T14:52:16.061Z,1.70
2018-09-12T14:54:42.976Z,2.10
2018-09-12T14:57:09.855Z,2.03
2018-09-12T14:59:36.756Z,1.70
2018-09-12T15:02:03.686Z,1.43
2018-09-12T15:04:30.561Z,1.80
2018-09-12T15:06:57.508Z,2.10
2018-09-12T15:09:24.376Z,1.93
2018-09-12T15:11:51.284Z,1.80
2018-09-12T15:14:18.170Z,1.93
2018-09-12T15:16:45.061Z,2.00
2018-09-12T15:19:12.210Z,1.87
2018-09-12T15:21:45.934Z,1.93
2018-09-12T15:24:12.812Z,1.67
2018-09-12T15:26:39.706Z,1.97
2018-09-12T15:29:06.657Z,1.77
2018-09-12T15:31:33.557Z,1.90
2018-09-12T15:34:00.470Z,1.60
2018-09-12T15:36:34.068Z,1.57
2018-09-12T15:39:00.961Z,1.77
2018-09-12T15:41:27.915Z,1.70
2018-09-12T15:43:54.812Z,2.00
2018-09-12T15:46:21.721Z,2.00
2018-09-12T15:48:48.623Z,1.50
2018-09-12T15:51:15.518Z,1.70
2018-09-12T15:53:42.478Z,1.97
2018-09-12T15:56:09.383Z,1.90
2018-09-12T15:58:36.269Z,1.97
2018-09-12T16:01:03.196Z,1.77
2018-09-12T16:03:30.073Z,1.87
2018-09-12T16:05:57.052Z,1.70
2018-09-12T16:08:23.924Z,1.63
2018-09-12T16:10:50.808Z,1.90
2018-09-12T16:13:17.686Z,1.90
2018-09-12T16:15:44.569Z,1.60
2018-09-12T16:18:11.438Z,1.73
2018-09-12T16:20:38.431Z,1.77
2018-09-12T16:23:05.385Z,1.80
2018-09-12T16:25:32.213Z,1.73
2018-09-12T16:27:59.113Z,1.60
2018-09-12T16:30:26.036Z,1.80
2018-09-12T16:32:52.967Z,1.50
2018-09-12T16:35:19.804Z,1.70
2018-09-12T16:37:46.706Z,1.87
2018-09-12T16:40:13.606Z,2.00
2018-09-12T16:42:47.120Z,1.87
2018-09-12T16:45:13.989Z,1.70
2018-09-12T16:47:40.861Z,1.53
2018-09-12T16:50:07.765Z,2.00
2018-09-12T16:52:34.656Z,1.97
2018-09-12T16:55:01.550Z,1.80
2018-09-12T16:57:28.628Z,2.13
2018-09-12T16:59:55.515Z,2.30
2018-09-12T17:02:22.425Z,2.00
2018-09-12T17:04:49.300Z,1.77
2018-09-12T17:07:16.208Z,2.03
2018-09-12T17:09:43.134Z,1.60
2018-09-12T17:12:10.032Z,1.77
2018-09-12T17:14:36.950Z,2.00
2018-09-12T17:17:03.868Z,2.37
2018-09-12T17:19:30.771Z,1.90
2018-09-12T17:21:57.718Z,2.07
2018-09-12T17:24:24.621Z,2.27
2018-09-12T17:26:51.520Z,3.67
2018-09-12T17:29:18.426Z,3.10
2018-09-12T17:31:45.385Z,2.53
2018-09-12T17:34:12.271Z,2.60
2018-09-12T17:36:39.242Z,2.13
2018-09-12T17:39:07.094Z,2.60
2018-09-12T17:41:34.084Z,1.87
2018-09-12T17:44:00.992Z,2.37
2018-09-12T17:46:27.917Z,2.20
2018-09-12T17:48:54.807Z,2.50
2018-09-12T17:51:21.716Z,2.63
2018-09-12T17:53:48.632Z,2.47
2018-09-12T17:56:15.544Z,2.40
2018-09-12T17:58:42.448Z,2.20
2018-09-12T18:01:09.789Z,2.00
2018-09-12T18:03:36.715Z,2.47
2018-09-12T18:06:03.627Z,2.97
2018-09-12T18:08:30.533Z,3.73
2018-09-12T18:10:57.471Z,3.30
2018-09-12T18:13:24.497Z,3.40
2018-09-12T18:15:51.409Z,2.63
2018-09-12T18:18:18.317Z,2.10
2018-09-12T18:20:45.330Z,1.97
2018-09-12T18:23:12.236Z,2.07
2018-09-12T18:25:39.141Z,1.80
2018-09-12T18:28:06.087Z,1.77
2018-09-12T18:30:33.169Z,2.10
2018-09-12T18:33:00.080Z,2.57
2018-09-12T18:35:26.992Z,5.43
2018-09-12T18:37:53.922Z,3.57
2018-09-12T18:40:20.841Z,2.50
2018-09-12T18:45:21.346Z,2.50
2018-09-12T18:47:48.256Z,3.63
2018-09-12T18:50:15.277Z,6.63
2018-09-12T18:52:42.201Z,7.20
2018-09-12T18:55:09.113Z,8.63
2018-09-12T18:57:36.039Z,6.87
2018-09-12T19:00:03.049Z,3.70
2018-09-12T19:02:29.970Z,4.07
2018-09-12T19:04:56.894Z,3.07
2018-09-12T19:07:23.883Z,2.93
2018-09-12T19:09:50.749Z,3.10
2018-09-12T19:12:17.684Z,2.37
2018-09-12T19:14:44.650Z,2.80
2018-09-12T19:17:11.576Z,2.97
2018-09-12T19:19:38.565Z,3.97
2018-09-12T19:22:05.492Z,4.67
2018-09-12T19:24:32.393Z,4.67
2018-09-12T19:26:59.302Z,5.30
2018-09-12T19:29:26.204Z,6.10
2018-09-12T19:31:53.168Z,6.53
2018-09-12T19:34:20.073Z,7.40
2018-09-12T19:36:46.965Z,8.07
2018-09-12T19:39:13.874Z,9.30
2018-09-12T19:41:40.766Z,10.60
2018-09-12T19:44:07.698Z,10.07
2018-09-12T19:46:34.821Z,7.67
2018-09-12T19:49:02.125Z,7.60
2018-09-12T19:51:29.016Z,7.80
2018-09-12T19:53:55.929Z,6.83
2018-09-12T19:56:22.817Z,7.57
2018-09-12T19:58:49.726Z,8.13
2018-09-12T20:01:16.653Z,8.40
2018-09-12T20:03:43.594Z,5.53
2018-09-12T20:06:10.490Z,6.00
2018-09-12T20:08:37.391Z,3.30
2018-09-12T20:11:04.557Z,3.40
2018-09-12T20:13:31.514Z,3.63
2018-09-12T20:15:58.508Z,3.33
2018-09-12T20:18:25.469Z,2.93
2018-09-12T20:20:52.370Z,3.87
2018-09-12T20:23:19.300Z,2.97
2018-09-12T20:25:46.232Z,3.03
2018-09-12T20:28:13.168Z,3.10
2018-09-12T20:30:40.081Z,3.07
2018-09-12T20:33:06.989Z,3.10
2018-09-12T20:35:33.958Z,3.57
2018-09-12T20:38:00.840Z,4.27
2018-09-12T20:40:27.781Z,4.30
2018-09-12T20:42:54.691Z,3.97
2018-09-12T20:45:21.622Z,4.07
2018-09-12T20:47:48.524Z,3.30
2018-09-12T20:50:15.425Z,3.53
2018-09-12T20:52:42.321Z,3.33
2018-09-12T20:55:09.225Z,2.90
2018-09-12T20:57:36.136Z,2.80
2018-09-12T21:00:03.096Z,2.60
2018-09-12T21:02:30.025Z,2.37
2018-09-12T21:04:56.930Z,2.70
2018-09-12T21:07:23.815Z,2.30
2018-09-12T21:09:50.739Z,2.40
2018-09-12T21:12:17.620Z,2.40
2018-09-12T21:14:44.512Z,2.90
2018-09-12T21:17:11.468Z,2.33
2018-09-12T21:19:38.407Z,2.33
2018-09-12T21:22:05.367Z,2.60
2018-09-12T21:24:32.277Z,2.33
2018-09-12T21:26:59.176Z,2.37
2018-09-12T21:29:26.110Z,2.20
2018-09-12T21:31:53.016Z,2.20
2018-09-12T21:34:19.940Z,2.70
2018-09-12T21:36:46.853Z,2.20
2018-09-12T21:39:13.782Z,2.30
2018-09-12T21:41:40.697Z,2.60
2018-09-12T21:44:07.628Z,2.20
2018-09-12T21:46:34.552Z,2.20
2018-09-12T21:49:01.456Z,2.20
2018-09-12T21:51:28.369Z,2.13
2018-09-12T21:53:55.280Z,2.67
2018-09-12T21:56:22.208Z,2.70
2018-09-12T21:58:49.128Z,2.23
2018-09-12T22:01:20.854Z,2.30
2018-09-12T22:03:47.773Z,2.90
2018-09-12T22:06:14.918Z,2.23
2018-09-12T22:08:41.829Z,2.73
2018-09-12T22:11:08.762Z,2.57
2018-09-12T22:13:35.676Z,2.63
2018-09-12T22:16:02.622Z,2.90
2018-09-12T22:18:29.561Z,2.60
2018-09-12T22:20:56.497Z,2.50
2018-09-12T22:23:23.408Z,2.33
2018-09-12T22:25:50.328Z,2.90
2018-09-12T22:28:17.270Z,2.77
2018-09-12T22:30:44.330Z,2.90
2018-09-12T22:33:11.236Z,3.27
2018-09-12T22:35:38.172Z,2.70
2018-09-12T22:38:05.233Z,3.63
2018-09-12T22:40:32.262Z,2.93
2018-09-12T22:42:59.153Z,2.80
2018-09-12T22:45:26.065Z,3.07
2018-09-12T22:47:52.962Z,2.93
2018-09-12T22:50:19.873Z,3.00
2018-09-12T22:52:46.765Z,3.00
2018-09-12T22:55:13.680Z,3.23
2018-09-12T22:57:40.588Z,2.90
2018-09-12T23:00:07.728Z,3.23
2018-09-12T23:02:34.612Z,3.37
2018-09-12T23:05:01.507Z,2.80
2018-09-12T23:07:28.412Z,3.17
2018-09-12T23:09:55.300Z,2.70
2018-09-12T23:12:22.197Z,3.10
2018-09-12T23:14:49.105Z,3.37
2018-09-12T23:17:16.009Z,3.20
2018-09-12T23:19:42.907Z,2.97
2018-09-12T23:22:09.823Z,2.93
2018-09-12T23:24:36.729Z,3.30
2018-09-12T23:27:03.932Z,3.20
2018-09-12T23:29:30.876Z,2.97
2018-09-12T23:31:57.817Z,2.93
2018-09-12T23:34:24.727Z,2.60
2018-09-12T23:36:51.641Z,3.17
2018-09-12T23:39:18.548Z,3.13
2018-09-12T23:41:45.497Z,2.73
2018-09-12T23:44:12.430Z,2.90
2018-09-12T23:46:39.554Z,3.20
2018-09-12T23:49:07.078Z,2.70
2018-09-12T23:51:33.984Z,3.20
2018-09-12T23:54:00.992Z,3.13
2018-09-12T23:56:27.903Z,3.30
2018-09-12T23:58:54.814Z,3.10
